Time;durP1;ratioP1;P1;durP2;ratioP2;P2;SDS_P1;SDS_P2;PMS_P1;PMS_P2;Temp;Humidity;BMP_temperature;BMP_pressure;BME280_temperature;BME280_humidity;BME280_pressure;Samples;Min_cycle;Max_cycle;Signal;HPM_P1;HPM_P2
2023/02/06 00:01:15;;;;;;;29.40;17.90;;;;;;;-128.00;-1.00;-1.00;104942;1264;1004389;-75
2023/02/06 00:03:42;;;;;;;31.20;19.70;;;;;;;-128.00;-1.00;-1.00;104928;1264;1004699;-74
2023/02/06 00:06:10;;;;;;;28.90;18.80;;;;;;;-128.00;-1.00;-1.00;104935;1264;1004529;-75
2023/02/06 00:08:36;;;;;;;35.80;19.40;;;;;;;-128.00;-1.00;-1.00;104891;1264;1005212;-74
2023/02/06 00:11:08;;;;;;;29.30;18.10;;;;;;;-128.00;-1.00;-1.00;104933;1268;1003885;-75
2023/02/06 00:13:35;;;;;;;35.40;18.90;;;;;;;-128.00;-1.00;-1.00;104737;1264;1056192;-76
2023/02/06 00:16:03;;;;;;;34.40;18.00;;;;;;;-128.00;-1.00;-1.00;104153;1264;1004094;-75
2023/02/06 00:18:30;;;;;;;29.40;17.20;;;;;;;-128.00;-1.00;-1.00;104945;1263;1003404;-75
2023/02/06 00:20:57;;;;;;;29.40;18.20;;;;;;;-128.00;-1.00;-1.00;104181;1264;1004618;-75
2023/02/06 00:23:23;;;;;;;27.20;16.90;;;;;;;-128.00;-1.00;-1.00;104809;1264;1003700;-73
2023/02/06 00:25:50;;;;;;;28.60;18.40;;;;;;;-128.00;-1.00;-1.00;104805;1266;1004103;-74
2023/02/06 00:28:17;;;;;;;29.00;18.10;;;;;;;-128.00;-1.00;-1.00;104956;1264;1004946;-75
2023/02/06 00:30:46;;;;;;;29.60;17.60;;;;;;;-128.00;-1.00;-1.00;104937;1264;1003867;-75
2023/02/06 00:33:13;;;;;;;29.20;17.80;;;;;;;-128.00;-1.00;-1.00;104931;1264;1047564;-76
2023/02/06 00:35:39;;;;;;;28.10;17.30;;;;;;;-128.00;-1.00;-1.00;104777;1264;1004411;-75
2023/02/06 00:38:11;;;;;;;29.50;18.20;;;;;;;-128.00;-1.00;-1.00;104952;1264;1003913;-75
2023/02/06 00:40:38;;;;;;;25.80;17.50;;;;;;;-128.00;-1.00;-1.00;104926;1264;1058736;-75
2023/02/06 00:43:04;;;;;;;32.10;18.30;;;;;;;-128.00;-1.00;-1.00;104873;1264;1003979;-75
2023/02/06 00:45:31;;;;;;;31.70;18.00;;;;;;;-128.00;-1.00;-1.00;104955;1264;1004699;-76
2023/02/06 00:47:59;;;;;;;31.00;18.00;;;;;;;-128.00;-1.00;-1.00;104908;1264;1003504;-75
2023/02/06 00:50:26;;;;;;;30.00;17.90;;;;;;;-128.00;-1.00;-1.00;104950;1264;1003793;-75
2023/02/06 00:52:52;;;;;;;31.30;18.90;;;;;;;-128.00;-1.00;-1.00;104923;1264;1004556;-75
2023/02/06 00:55:19;;;;;;;31.90;18.90;;;;;;;-128.00;-1.00;-1.00;104922;1264;1003915;-74
2023/02/06 00:57:46;;;;;;;31.30;17.90;;;;;;;-128.00;-1.00;-1.00;104705;1264;1004170;-76
2023/02/06 01:00:13;;;;;;;31.90;19.40;;;;;;;-128.00;-1.00;-1.00;104952;1264;1003402;-76
2023/02/06 01:02:40;;;;;;;30.20;19.60;;;;;;;-128.00;-1.00;-1.00;104934;1264;1004331;-75
2023/02/06 01:05:07;;;;;;;33.20;18.50;;;;;;;-128.00;-1.00;-1.00;104927;1264;1004921;-75
2023/02/06 01:07:38;;;;;;;30.70;19.00;;;;;;;-128.00;-1.00;-1.00;104938;1264;1004331;-75
2023/02/06 01:10:07;;;;;;;29.70;19.20;;;;;;;-128.00;-1.00;-1.00;104838;1264;1046964;-75
2023/02/06 01:12:35;;;;;;;32.30;19.00;;;;;;;-128.00;-1.00;-1.00;104869;1264;1062614;-76
2023/02/06 01:15:07;;;;;;;32.50;19.00;;;;;;;-128.00;-1.00;-1.00;104957;1264;1003673;-75
2023/02/06 01:17:35;;;;;;;33.10;20.50;;;;;;;-128.00;-1.00;-1.00;104906;1264;1059500;-76
2023/02/06 01:20:02;;;;;;;32.50;19.20;;;;;;;-128.00;-1.00;-1.00;104076;1264;1003478;-75
2023/02/06 01:22:32;;;;;;;33.50;19.90;;;;;;;-128.00;-1.00;-1.00;104743;1264;1004349;-75
2023/02/06 01:24:59;;;;;;;;;;;;;;;-128.00;-1.00;-1.00;104949;1264;1062252;-75
2023/02/06 01:27:26;;;;;;;33.80;19.60;;;;;;;-128.00;-1.00;-1.00;104939;1264;1004396;-75
2023/02/06 01:29:53;;;;;;;31.40;18.90;;;;;;;-128.00;-1.00;-1.00;104908;1264;1005637;-76
2023/02/06 01:32:20;;;;;;;30.60;19.40;;;;;;;-128.00;-1.00;-1.00;104934;1264;1004178;-75
2023/02/06 01:34:46;;;;;;;36.30;21.40;;;;;;;-128.00;-1.00;-1.00;104966;1264;1003403;-75
2023/02/06 01:37:13;;;;;;;37.70;20.10;;;;;;;-128.00;-1.00;-1.00;104945;1264;1003678;-75
2023/02/06 01:39:40;;;;;;;32.00;18.60;;;;;;;-128.00;-1.00;-1.00;104948;1264;1003337;-76
2023/02/06 01:42:11;;;;;;;34.60;20.60;;;;;;;-128.00;-1.00;-1.00;104948;1264;1005158;-75
2023/02/06 01:44:38;;;;;;;34.50;19.00;;;;;;;-128.00;-1.00;-1.00;104738;1270;1046847;-76
2023/02/06 01:47:05;;;;;;;33.40;19.60;;;;;;;-128.00;-1.00;-1.00;104944;1264;1004013;-75
2023/02/06 01:49:36;;;;;;;36.90;21.30;;;;;;;-128.00;-1.00;-1.00;104923;1264;1003921;-75
2023/02/06 01:52:16;;;;;;;33.70;19.40;;;;;;;-128.00;-1.00;-1.00;104933;1264;1056364;-75
2023/02/06 01:54:51;;;;;;;33.40;19.40;;;;;;;-128.00;-1.00;-1.00;104927;1264;1062252;-75
2023/02/06 01:57:19;;;;;;;35.30;20.30;;;;;;;-128.00;-1.00;-1.00;104951;1264;1046328;-75
2023/02/06 01:59:53;;;;;;;33.30;20.50;;;;;;;-128.00;-1.00;-1.00;104857;1264;1046799;-75
2023/02/06 02:02:24;;;;;;;27.80;18.40;;;;;;;-128.00;-1.00;-1.00;104921;1264;1061453;-76
2023/02/06 02:04:51;;;;;;;33.10;19.70;;;;;;;-128.00;-1.00;-1.00;104947;1264;1056675;-75
2023/02/06 02:07:27;;;;;;;32.40;19.40;;;;;;;-128.00;-1.00;-1.00;104948;1264;1004223;-76
2023/02/06 02:09:54;;;;;;;37.80;21.00;;;;;;;-128.00;-1.00;-1.00;104828;1264;1046969;-75
2023/02/06 02:12:20;;;;;;;32.00;18.60;;;;;;;-128.00;-1.00;-1.00;104661;1264;1004116;-75
2023/02/06 02:14:50;;;;;;;31.80;18.40;;;;;;;-128.00;-1.00;-1.00;104960;1264;1004371;-74
2023/02/06 02:17:46;;;;;;;33.00;17.70;;;;;;;-128.00;-1.00;-1.00;104971;1264;1055740;-74
2023/02/06 02:20:37;;;;;;;33.80;18.60;;;;;;;-128.00;-1.00;-1.00;104175;1264;1058206;-75
2023/02/06 02:23:09;;;;;;;30.70;17.20;;;;;;;-128.00;-1.00;-1.00;104951;1264;1046506;-75
2023/02/06 02:26:09;;;;;;;29.30;16.00;;;;;;;-128.00;-1.00;-1.00;104193;1264;2002168;-74
2023/02/06 02:28:57;;;;;;;31.20;16.20;;;;;;;-128.00;-1.00;-1.00;104765;1264;1063166;-74
2023/02/06 02:31:33;;;;;;;31.10;18.80;;;;;;;-128.00;-1.00;-1.00;104973;1264;1055726;-74
2023/02/06 02:34:24;;;;;;;26.30;16.70;;;;;;;-128.00;-1.00;-1.00;104931;1264;1058776;-74
2023/02/06 02:37:00;;;;;;;28.80;17.50;;;;;;;-128.00;-1.00;-1.00;104960;1264;1046583;-74
2023/02/06 02:39:26;;;;;;;26.30;18.10;;;;;;;-128.00;-1.00;-1.00;104986;1264;1046304;-75
2023/02/06 02:41:58;;;;;;;30.70;17.60;;;;;;;-128.00;-1.00;-1.00;104969;1264;1004553;-75
2023/02/06 02:44:35;;;;;;;31.50;17.40;;;;;;;-128.00;-1.00;-1.00;104954;1264;1056978;-75
2023/02/06 02:47:07;;;;;;;29.60;17.60;;;;;;;-128.00;-1.00;-1.00;104942;1264;1059428;-74
2023/02/06 02:49:37;;;;;;;33.60;17.10;;;;;;;-128.00;-1.00;-1.00;104909;1264;1047771;-74
2023/02/06 02:52:04;;;;;;;30.60;17.90;;;;;;;-128.00;-1.00;-1.00;104967;1264;1047406;-75
2023/02/06 02:54:30;;;;;;;27.30;17.30;;;;;;;-128.00;-1.00;-1.00;104849;1267;1005544;-75
2023/02/06 02:57:16;;;;;;;32.30;18.70;;;;;;;-128.00;-1.00;-1.00;104949;1264;1004831;-75
2023/02/06 02:59:46;;;;;;;29.10;17.70;;;;;;;-128.00;-1.00;-1.00;104786;1264;1059985;-75
2023/02/06 03:02:30;;;;;;;30.90;19.70;;;;;;;-128.00;-1.00;-1.00;104860;1264;1046318;-75
2023/02/06 03:05:01;;;;;;;32.50;18.90;;;;;;;-128.00;-1.00;-1.00;104768;1264;1046752;-75
2023/02/06 03:07:36;;;;;;;33.60;19.30;;;;;;;-128.00;-1.00;-1.00;104941;1264;1061595;-74
2023/02/06 03:10:27;;;;;;;36.00;19.20;;;;;;;-128.00;-1.00;-1.00;104956;1264;1055319;-75
2023/02/06 03:13:04;;;;;;;34.20;20.70;;;;;;;-128.00;-1.00;-1.00;104881;1264;1058920;-76
2023/02/06 03:15:52;;;;;;;30.70;20.20;;;;;;;-128.00;-1.00;-1.00;104767;1264;1045589;-76
2023/02/06 03:18:24;;;;;;;35.10;20.60;;;;;;;-128.00;-1.00;-1.00;104970;1264;1046794;-75
2023/02/06 03:20:51;;;;;;;34.60;19.60;;;;;;;-128.00;-1.00;-1.00;104998;1264;1062671;-75
2023/02/06 03:23:26;;;;;;;34.20;20.30;;;;;;;-128.00;-1.00;-1.00;104934;1264;1004075;-75
2023/02/06 03:25:57;;;;;;;35.90;20.60;;;;;;;-128.00;-1.00;-1.00;104969;1264;1058786;-75
2023/02/06 03:28:30;;;;;;;37.00;21.00;;;;;;;-128.00;-1.00;-1.00;104933;1264;1046772;-75
2023/02/06 03:31:00;;;;;;;36.20;20.50;;;;;;;-128.00;-1.00;-1.00;104951;1264;1046680;-76
2023/02/06 03:33:34;;;;;;;38.20;22.50;;;;;;;-128.00;-1.00;-1.00;104972;1264;1062175;-75
2023/02/06 03:36:03;;;;;;;32.40;20.00;;;;;;;-128.00;-1.00;-1.00;104872;1264;1056221;-76
2023/02/06 03:38:30;;;;;;;35.20;19.90;;;;;;;-128.00;-1.00;-1.00;104936;1264;1058798;-76
2023/02/06 03:40:59;;;;;;;29.70;19.80;;;;;;;-128.00;-1.00;-1.00;104946;1264;1004278;-76
2023/02/06 03:43:28;;;;;;;31.00;18.90;;;;;;;-128.00;-1.00;-1.00;104950;1264;1046370;-77
2023/02/06 03:45:59;;;;;;;34.60;20.70;;;;;;;-128.00;-1.00;-1.00;104828;1264;1062404;-76
2023/02/06 03:48:43;;;;;;;36.70;21.60;;;;;;;-128.00;-1.00;-1.00;104934;1264;1055101;-76
2023/02/06 03:51:16;;;;;;;33.30;21.60;;;;;;;-128.00;-1.00;-1.00;104950;1264;1059486;-76
2023/02/06 03:53:44;;;;;;;33.40;21.10;;;;;;;-128.00;-1.00;-1.00;104922;1264;1046391;-76
2023/02/06 03:56:23;;;;;;;39.10;22.10;;;;;;;-128.00;-1.00;-1.00;104766;1264;1046465;-76
2023/02/06 03:58:50;;;;;;;34.10;21.60;;;;;;;-128.00;-1.00;-1.00;104850;1264;1063658;-76
2023/02/06 04:01:17;;;;;;;40.90;23.60;;;;;;;-128.00;-1.00;-1.00;104947;1264;1004474;-75
2023/02/06 04:03:46;;;;;;;32.70;20.60;;;;;;;-128.00;-1.00;-1.00;104939;1264;1004562;-76
2023/02/06 04:06:13;;;;;;;38.50;22.80;;;;;;;-128.00;-1.00;-1.00;104586;1264;1046954;-75
2023/02/06 04:08:39;;;;;;;37.00;22.30;;;;;;;-128.00;-1.00;-1.00;104941;1264;1004201;-76
2023/02/06 04:11:06;;;;;;;40.90;24.30;;;;;;;-128.00;-1.00;-1.00;104208;1264;1004049;-76
2023/02/06 04:13:33;;;;;;;38.50;22.70;;;;;;;-128.00;-1.00;-1.00;104218;1264;1004450;-75
2023/02/06 04:16:00;;;;;;;37.00;22.70;;;;;;;-128.00;-1.00;-1.00;104932;1264;1004392;-74
2023/02/06 04:18:27;;;;;;;39.60;23.00;;;;;;;-128.00;-1.00;-1.00;104935;1264;1004360;-75
2023/02/06 04:20:54;;;;;;;44.30;25.70;;;;;;;-128.00;-1.00;-1.00;104949;1264;1005375;-76
2023/02/06 04:23:20;;;;;;;47.60;28.10;;;;;;;-128.00;-1.00;-1.00;104800;1264;1005038;-75
2023/02/06 04:25:47;;;;;;;47.10;28.40;;;;;;;-128.00;-1.00;-1.00;104781;1264;1004874;-75
2023/02/06 04:28:14;;;;;;;50.70;29.80;;;;;;;-128.00;-1.00;-1.00;104948;1264;1004259;-75
2023/02/06 04:30:40;;;;;;;52.20;32.40;;;;;;;-128.00;-1.00;-1.00;104626;1264;1003938;-76
2023/02/06 04:33:07;;;;;;;58.80;35.90;;;;;;;-128.00;-1.00;-1.00;104780;1264;1004283;-76
2023/02/06 04:35:34;;;;;;;49.40;33.70;;;;;;;-128.00;-1.00;-1.00;104965;1263;1005088;-76
2023/02/06 04:38:00;;;;;;;54.80;33.30;;;;;;;-128.00;-1.00;-1.00;104830;1264;1004028;-76
2023/02/06 04:40:27;;;;;;;56.80;34.20;;;;;;;-128.00;-1.00;-1.00;104942;1264;1003997;-76
2023/02/06 04:42:54;;;;;;;52.00;33.30;;;;;;;-128.00;-1.00;-1.00;104914;1263;1004520;-75
2023/02/06 04:45:21;;;;;;;60.70;36.80;;;;;;;-128.00;-1.00;-1.00;104911;1264;1004709;-76
2023/02/06 04:47:49;;;;;;;58.80;38.20;;;;;;;-128.00;-1.00;-1.00;104207;1264;1005141;-75
2023/02/06 04:50:16;;;;;;;51.70;34.20;;;;;;;-128.00;-1.00;-1.00;104082;1264;1003984;-75
2023/02/06 04:52:43;;;;;;;52.10;33.60;;;;;;;-128.00;-1.00;-1.00;104944;1264;1004636;-75
2023/02/06 04:55:10;;;;;;;54.80;35.60;;;;;;;-128.00;-1.00;-1.00;104946;1264;1004163;-76
2023/02/06 04:57:37;;;;;;;59.90;34.60;;;;;;;-128.00;-1.00;-1.00;104934;1264;1004368;-76
2023/02/06 05:00:06;;;;;;;50.30;34.00;;;;;;;-128.00;-1.00;-1.00;104830;1264;1004351;-76
2023/02/06 05:02:38;;;;;;;48.60;31.50;;;;;;;-128.00;-1.00;-1.00;104767;1264;1055651;-76
2023/02/06 05:05:07;;;;;;;60.90;36.00;;;;;;;-128.00;-1.00;-1.00;104937;1264;1060192;-75
2023/02/06 05:07:34;;;;;;;52.00;33.70;;;;;;;-128.00;-1.00;-1.00;104101;1264;1045621;-75
2023/02/06 05:10:02;;;;;;;47.50;30.60;;;;;;;-128.00;-1.00;-1.00;104769;1264;1003959;-75
2023/02/06 05:12:28;;;;;;;49.90;33.80;;;;;;;-128.00;-1.00;-1.00;104789;1264;1003616;-76
2023/02/06 05:14:55;;;;;;;54.40;35.10;;;;;;;-128.00;-1.00;-1.00;104968;1264;1004042;-76
2023/02/06 05:17:22;;;;;;;54.60;35.20;;;;;;;-128.00;-1.00;-1.00;104957;1264;1004151;-76
2023/02/06 05:19:48;;;;;;;53.80;34.00;;;;;;;-128.00;-1.00;-1.00;104950;1264;1004534;-75
2023/02/06 05:22:15;;;;;;;55.50;35.00;;;;;;;-128.00;-1.00;-1.00;104942;1264;1003531;-75
2023/02/06 05:24:42;;;;;;;52.90;35.60;;;;;;;-128.00;-1.00;-1.00;104848;1264;1004185;-75
2023/02/06 05:27:08;;;;;;;55.40;33.60;;;;;;;-128.00;-1.00;-1.00;104978;1264;1004718;-76
2023/02/06 05:29:35;;;;;;;56.40;36.90;;;;;;;-128.00;-1.00;-1.00;104955;1264;1004386;-75
2023/02/06 05:32:02;;;;;;;54.70;34.30;;;;;;;-128.00;-1.00;-1.00;104908;1264;1003817;-76
2023/02/06 05:34:29;;;;;;;55.50;35.00;;;;;;;-128.00;-1.00;-1.00;104220;1264;1003892;-76
2023/02/06 05:36:55;;;;;;;57.30;36.40;;;;;;;-128.00;-1.00;-1.00;104828;1264;1004413;-75
2023/02/06 05:39:23;;;;;;;50.70;34.50;;;;;;;-128.00;-1.00;-1.00;104948;1264;1004090;-76
2023/02/06 05:41:50;;;;;;;52.10;34.40;;;;;;;-128.00;-1.00;-1.00;104950;1264;1003780;-75
2023/02/06 05:44:16;;;;;;;50.40;33.30;;;;;;;-128.00;-1.00;-1.00;104970;1264;1004771;-77
2023/02/06 05:46:44;;;;;;;64.80;41.80;;;;;;;-128.00;-1.00;-1.00;104216;1264;1004925;-76
2023/02/06 05:49:10;;;;;;;60.70;37.20;;;;;;;-128.00;-1.00;-1.00;104948;1263;1004069;-75
2023/02/06 05:51:37;;;;;;;58.80;37.50;;;;;;;-128.00;-1.00;-1.00;104214;1264;1004392;-76
2023/02/06 05:54:04;;;;;;;56.50;36.20;;;;;;;-128.00;-1.00;-1.00;104184;1264;1004823;-76
2023/02/06 05:56:31;;;;;;;57.50;36.90;;;;;;;-128.00;-1.00;-1.00;104188;1264;1003912;-75
2023/02/06 05:58:58;;;;;;;59.90;38.80;;;;;;;-128.00;-1.00;-1.00;104951;1264;1004238;-75
2023/02/06 06:01:24;;;;;;;68.20;41.50;;;;;;;-128.00;-1.00;-1.00;104949;1264;1004052;-76
2023/02/06 06:03:51;;;;;;;66.50;41.00;;;;;;;-128.00;-1.00;-1.00;104976;1264;1003960;-75
2023/02/06 06:06:18;;;;;;;65.40;42.20;;;;;;;-128.00;-1.00;-1.00;104942;1264;1004231;-76
2023/02/06 06:08:45;;;;;;;61.60;39.20;;;;;;;-128.00;-1.00;-1.00;104180;1264;1004584;-74
2023/02/06 06:11:12;;;;;;;60.60;39.90;;;;;;;-128.00;-1.00;-1.00;104939;1264;1004171;-75
2023/02/06 06:13:38;;;;;;;60.20;39.10;;;;;;;-128.00;-1.00;-1.00;104968;1264;1003686;-74
2023/02/06 06:16:05;;;;;;;75.10;46.60;;;;;;;-128.00;-1.00;-1.00;104954;1264;1003760;-75
2023/02/06 06:18:32;;;;;;;73.70;47.10;;;;;;;-128.00;-1.00;-1.00;104596;1264;1004789;-76
2023/02/06 06:20:58;;;;;;;78.60;48.20;;;;;;;-128.00;-1.00;-1.00;104954;1264;1004814;-75
2023/02/06 06:23:25;;;;;;;80.40;50.30;;;;;;;-128.00;-1.00;-1.00;104962;1264;1004737;-75
2023/02/06 06:25:52;;;;;;;80.10;51.10;;;;;;;-128.00;-1.00;-1.00;104817;1264;1004255;-75
2023/02/06 06:28:18;;;;;;;76.50;47.40;;;;;;;-128.00;-1.00;-1.00;104968;1264;1004986;-75
2023/02/06 06:30:45;;;;;;;89.70;54.30;;;;;;;-128.00;-1.00;-1.00;104957;1264;1004391;-75
2023/02/06 06:33:14;;;;;;;91.20;57.20;;;;;;;-128.00;-1.00;-1.00;104917;1264;1003469;-75
2023/02/06 06:35:41;;;;;;;88.20;55.30;;;;;;;-128.00;-1.00;-1.00;104952;1264;1045886;-75
2023/02/06 06:38:07;;;;;;;98.20;59.90;;;;;;;-128.00;-1.00;-1.00;104195;1264;1004450;-76
2023/02/06 06:40:34;;;;;;;117.30;71.70;;;;;;;-128.00;-1.00;-1.00;104960;1264;1004632;-76
2023/02/06 06:43:00;;;;;;;102.90;61.20;;;;;;;-128.00;-1.00;-1.00;104931;1264;1004552;-74
2023/02/06 06:45:27;;;;;;;111.50;65.90;;;;;;;-128.00;-1.00;-1.00;104914;1263;1003731;-75
2023/02/06 06:47:54;;;;;;;112.50;71.20;;;;;;;-128.00;-1.00;-1.00;104936;1264;1003291;-75
2023/02/06 06:50:20;;;;;;;115.10;68.40;;;;;;;-128.00;-1.00;-1.00;104179;1263;1004850;-75
2023/02/06 06:52:47;;;;;;;101.80;65.50;;;;;;;-128.00;-1.00;-1.00;104967;1263;1004396;-75
2023/02/06 06:55:14;;;;;;;107.40;68.00;;;;;;;-128.00;-1.00;-1.00;104932;1264;1003815;-74
2023/02/06 06:57:41;;;;;;;121.50;76.20;;;;;;;-128.00;-1.00;-1.00;104921;1263;1004493;-75
2023/02/06 07:00:08;;;;;;;138.50;83.30;;;;;;;-128.00;-1.00;-1.00;104946;1263;1004430;-75
2023/02/06 07:02:35;;;;;;;149.60;92.80;;;;;;;-128.00;-1.00;-1.00;104183;1263;1004111;-75
2023/02/06 07:05:03;;;;;;;152.20;96.50;;;;;;;-128.00;-1.00;-1.00;104935;1263;1004170;-76
2023/02/06 07:07:30;;;;;;;144.80;94.60;;;;;;;-128.00;-1.00;-1.00;104745;1264;1003445;-76
2023/02/06 07:09:59;;;;;;;135.60;85.40;;;;;;;-128.00;-1.00;-1.00;104781;1264;1004241;-75
2023/02/06 07:12:27;;;;;;;142.90;91.40;;;;;;;-128.00;-1.00;-1.00;104939;1264;1047050;-75
2023/02/06 07:14:53;;;;;;;132.50;88.80;;;;;;;-128.00;-1.00;-1.00;104909;1264;1003898;-75
2023/02/06 07:17:20;;;;;;;132.10;82.70;;;;;;;-128.00;-1.00;-1.00;104950;1263;1003843;-77
2023/02/06 07:19:48;;;;;;;130.40;86.80;;;;;;;-128.00;-1.00;-1.00;104917;1263;1004861;-74
2023/02/06 07:22:14;;;;;;;131.70;89.00;;;;;;;-128.00;-1.00;-1.00;104918;1263;1004111;-75
2023/02/06 07:24:42;;;;;;;125.30;81.90;;;;;;;-128.00;-1.00;-1.00;104858;1263;1004468;-76
2023/02/06 07:27:08;;;;;;;138.80;86.50;;;;;;;-128.00;-1.00;-1.00;104949;1264;1003460;-75
2023/02/06 07:29:36;;;;;;;142.40;90.40;;;;;;;-128.00;-1.00;-1.00;104918;1264;1004734;-76
2023/02/06 07:32:04;;;;;;;156.90;96.70;;;;;;;-128.00;-1.00;-1.00;104917;1263;1004708;-76
2023/02/06 07:34:31;;;;;;;135.00;91.10;;;;;;;-128.00;-1.00;-1.00;104910;1263;1004160;-75
2023/02/06 07:37:00;;;;;;;131.80;89.70;;;;;;;-128.00;-1.00;-1.00;104925;1264;1004433;-76
2023/02/06 07:39:27;;;;;;;137.40;94.70;;;;;;;-128.00;-1.00;-1.00;104913;1264;1062680;-75
2023/02/06 07:41:54;;;;;;;145.40;98.30;;;;;;;-128.00;-1.00;-1.00;104909;1264;1004308;-75
2023/02/06 07:44:21;;;;;;;153.50;101.00;;;;;;;-128.00;-1.00;-1.00;104815;1263;1004704;-75
2023/02/06 07:46:47;;;;;;;145.90;95.60;;;;;;;-128.00;-1.00;-1.00;104912;1263;1004397;-76
2023/02/06 07:49:14;;;;;;;140.10;93.60;;;;;;;-128.00;-1.00;-1.00;104945;1264;1003641;-75
2023/02/06 07:51:42;;;;;;;125.30;88.60;;;;;;;-128.00;-1.00;-1.00;104928;1264;1004712;-75
2023/02/06 07:54:10;;;;;;;121.90;84.50;;;;;;;-128.00;-1.00;-1.00;104933;1264;1003860;-75
2023/02/06 07:56:38;;;;;;;126.10;87.10;;;;;;;-128.00;-1.00;-1.00;104573;1264;1005065;-75
2023/02/06 07:59:05;;;;;;;105.70;73.00;;;;;;;-128.00;-1.00;-1.00;104921;1264;1004666;-76
2023/02/06 08:01:32;;;;;;;118.90;84.60;;;;;;;-128.00;-1.00;-1.00;104921;1264;1004876;-75
2023/02/06 08:03:59;;;;;;;117.60;81.90;;;;;;;-128.00;-1.00;-1.00;104774;1263;1004946;-74
2023/02/06 08:06:26;;;;;;;116.20;77.10;;;;;;;-128.00;-1.00;-1.00;104690;1263;1004882;-76
2023/02/06 08:08:55;;;;;;;117.30;82.20;;;;;;;-128.00;-1.00;-1.00;104941;1264;1003388;-76
2023/02/06 08:11:24;;;;;;;100.40;71.10;;;;;;;-128.00;-1.00;-1.00;104797;1263;1045942;-76
2023/02/06 08:13:51;;;;;;;97.20;67.10;;;;;;;-128.00;-1.00;-1.00;104850;1263;1046925;-75
2023/02/06 08:16:20;;;;;;;97.30;66.00;;;;;;;-128.00;-1.00;-1.00;104920;1264;1004325;-75
2023/02/06 08:18:47;;;;;;;97.90;70.10;;;;;;;-128.00;-1.00;-1.00;104828;1263;1055162;-76
2023/02/06 08:21:20;;;;;;;101.30;67.90;;;;;;;-128.00;-1.00;-1.00;104932;1263;1003728;-75
2023/02/06 08:23:53;;;;;;;97.00;64.50;;;;;;;-128.00;-1.00;-1.00;104776;1263;1045886;-76
2023/02/06 08:26:20;;;;;;;93.30;63.60;;;;;;;-128.00;-1.00;-1.00;104944;1263;1046828;-76
2023/02/06 08:28:49;;;;;;;87.20;62.30;;;;;;;-128.00;-1.00;-1.00;104817;1263;1003882;-76
2023/02/06 08:31:19;;;;;;;94.60;64.30;;;;;;;-128.00;-1.00;-1.00;104678;1263;1004318;-75
2023/02/06 08:33:46;;;;;;;;;;;;;;;-128.00;-1.00;-1.00;104924;1263;1058849;-75
2023/02/06 08:36:14;;;;;;;86.00;59.50;;;;;;;-128.00;-1.00;-1.00;104916;1264;1004512;-76
2023/02/06 08:38:41;;;;;;;85.40;55.20;;;;;;;-128.00;-1.00;-1.00;104987;1263;1003753;-76
2023/02/06 08:41:46;;;;;;;73.00;49.60;;;;;;;-128.00;-1.00;-1.00;104936;1263;1003723;-75
2023/02/06 08:44:16;;;;;;;74.00;51.00;;;;;;;-128.00;-1.00;-1.00;104018;1273;1056099;-75
2023/02/06 08:46:44;;;;;;;93.40;59.70;;;;;;;-128.00;-1.00;-1.00;104238;1272;1058906;-75
2023/02/06 08:49:14;;;;;;;59.30;41.70;;;;;;;-128.00;-1.00;-1.00;104060;1273;1047318;-75
2023/02/06 08:51:41;;;;;;;;;;;;;;;-128.00;-1.00;-1.00;104274;1272;1047665;-76
2023/02/06 08:54:12;;;;;;;46.10;31.00;;;;;;;-128.00;-1.00;-1.00;103485;1272;1003958;-75
2023/02/06 08:56:39;;;;;;;48.00;30.90;;;;;;;-128.00;-1.00;-1.00;104219;1272;1056680;-76
2023/02/06 08:59:07;;;;;;;52.10;33.00;;;;;;;-128.00;-1.00;-1.00;104296;1272;1004049;-76
2023/02/06 09:01:35;;;;;;;49.10;28.50;;;;;;;-128.00;-1.00;-1.00;103426;1272;1004123;-75
2023/02/06 09:04:05;;;;;;;39.20;25.70;;;;;;;-128.00;-1.00;-1.00;104326;1272;1004619;-76
2023/02/06 09:06:34;;;;;;;37.40;25.60;;;;;;;-128.00;-1.00;-1.00;104302;1272;1062907;-76
2023/02/06 09:09:02;;;;;;;36.10;23.70;;;;;;;-128.00;-1.00;-1.00;104310;1272;1055637;-76
2023/02/06 09:11:30;;;;;;;36.60;25.60;;;;;;;-128.00;-1.00;-1.00;104299;1272;1004425;-76
2023/02/06 09:13:58;;;;;;;45.90;31.60;;;;;;;-128.00;-1.00;-1.00;104206;1272;1004962;-76
2023/02/06 09:16:26;;;;;;;39.50;27.70;;;;;;;-128.00;-1.00;-1.00;104885;1265;1047552;-76
2023/02/06 09:18:54;;;;;;;42.90;27.50;;;;;;;-128.00;-1.00;-1.00;104942;1265;1004544;-75
2023/02/06 09:21:24;;;;;;;31.00;22.40;;;;;;;-128.00;-1.00;-1.00;104910;1265;1004726;-75
2023/02/06 09:23:54;;;;;;;18.40;12.00;;;;;;;-128.00;-1.00;-1.00;104764;1264;1059700;-75
2023/02/06 09:26:23;;;;;;;18.40;13.10;;;;;;;-128.00;-1.00;-1.00;104915;1265;1047697;-75
2023/02/06 09:28:56;;;;;;;15.00;11.50;;;;;;;-128.00;-1.00;-1.00;104958;1265;1047523;-74
2023/02/06 09:31:25;;;;;;;15.70;10.80;;;;;;;-128.00;-1.00;-1.00;104918;1265;1062437;-75
2023/02/06 09:33:52;;;;;;;9.20;7.70;;;;;;;-128.00;-1.00;-1.00;104921;1265;1056298;-75
2023/02/06 09:36:20;;;;;;;9.60;6.90;;;;;;;-128.00;-1.00;-1.00;104894;1265;1004838;-75
2023/02/06 09:38:56;;;;;;;9.00;6.90;;;;;;;-128.00;-1.00;-1.00;104891;1265;1004916;-75
2023/02/06 09:41:25;;;;;;;7.50;6.00;;;;;;;-128.00;-1.00;-1.00;104938;1264;1046547;-75
2023/02/06 09:43:58;;;;;;;8.90;6.60;;;;;;;-128.00;-1.00;-1.00;104950;1265;1061696;-75
2023/02/06 09:46:30;;;;;;;8.50;6.10;;;;;;;-128.00;-1.00;-1.00;104877;1265;1055731;-74
2023/02/06 09:49:00;;;;;;;9.20;7.30;;;;;;;-128.00;-1.00;-1.00;104756;1264;1060267;-76
2023/02/06 09:51:48;;;;;;;8.60;7.00;;;;;;;-128.00;-1.00;-1.00;104849;1266;1047168;-76
2023/02/06 09:54:15;;;;;;;6.90;6.00;;;;;;;-128.00;-1.00;-1.00;104904;1265;1047046;-76
2023/02/06 09:56:50;;;;;;;8.40;6.70;;;;;;;-128.00;-1.00;-1.00;104746;1263;1004453;-75
2023/02/06 09:59:50;;;;;;;11.10;6.80;;;;;;;-128.00;-1.00;-1.00;104898;1264;1055855;-75
2023/02/06 10:02:45;;;;;;;9.30;7.30;;;;;;;-128.00;-1.00;-1.00;104352;1271;1059296;-75
2023/02/06 10:05:41;;;;;;;11.20;7.80;;;;;;;-128.00;-1.00;-1.00;103839;1276;1045893;-75
2023/02/06 10:08:33;;;;;;;11.70;9.30;;;;;;;-128.00;-1.00;-1.00;103833;1276;1046892;-76
2023/02/06 10:11:07;;;;;;;12.40;9.10;;;;;;;-128.00;-1.00;-1.00;103749;1276;1062068;-75
2023/02/06 10:13:48;;;;;;;10.80;8.10;;;;;;;-128.00;-1.00;-1.00;103909;1276;1055100;-75
2023/02/06 10:16:46;;;;;;;10.50;8.40;;;;;;;-128.00;-1.00;-1.00;103859;1277;1060759;-76
2023/02/06 10:19:32;;;;;;;11.20;8.90;;;;;;;-128.00;-1.00;-1.00;103866;1276;1046496;-75
2023/02/06 10:22:09;;;;;;;11.70;8.80;;;;;;;-128.00;-1.00;-1.00;103898;1276;1047200;-75
2023/02/06 10:25:28;;;;;;;11.00;8.70;;;;;;;-128.00;-1.00;-1.00;103760;1277;1062192;-76
2023/02/06 10:28:07;;;;;;;12.10;8.60;;;;;;;-128.00;-1.00;-1.00;102650;1288;1056073;-75
2023/02/06 10:31:11;;;;;;;10.70;8.10;;;;;;;-128.00;-1.00;-1.00;102477;1288;1058665;-75
2023/02/06 10:33:48;;;;;;;10.10;8.50;;;;;;;-128.00;-1.00;-1.00;102667;1288;1045419;-75
2023/02/06 10:36:27;;;;;;;10.40;7.10;;;;;;;-128.00;-1.00;-1.00;102631;1289;1047759;-75
2023/02/06 10:39:16;;;;;;;9.90;7.60;;;;;;;-128.00;-1.00;-1.00;102928;1283;1063922;-76
2023/02/06 10:42:02;;;;;;;7.70;6.70;;;;;;;-128.00;-1.00;-1.00;103364;1276;1055280;-76
2023/02/06 10:44:54;;;;;;;8.10;7.30;;;;;;;-128.00;-1.00;-1.00;103870;1277;1059119;-76
2023/02/06 10:47:43;;;;;;;11.80;7.70;;;;;;;-128.00;-1.00;-1.00;103870;1276;1045139;-75
2023/02/06 10:50:44;;;;;;;10.90;8.20;;;;;;;-128.00;-1.00;-1.00;103905;1276;1047647;-75
2023/02/06 10:53:34;;;;;;;10.50;7.80;;;;;;;-128.00;-1.00;-1.00;103905;1276;1061874;-74
2023/02/06 10:56:08;;;;;;;10.80;8.60;;;;;;;-128.00;-1.00;-1.00;103879;1277;1056257;-75
2023/02/06 10:58:47;;;;;;;9.90;7.40;;;;;;;-128.00;-1.00;-1.00;103695;1278;1060025;-74
2023/02/06 11:01:15;;;;;;;11.20;8.40;;;;;;;-128.00;-1.00;-1.00;103695;1277;1046020;-76
2023/02/06 11:03:49;;;;;;;11.30;8.90;;;;;;;-128.00;-1.00;-1.00;103857;1273;1004967;-76
2023/02/06 11:06:19;;;;;;;13.40;8.40;;;;;;;-128.00;-1.00;-1.00;104770;1266;1062825;-76
2023/02/06 11:08:46;;;;;;;10.70;8.60;;;;;;;-128.00;-1.00;-1.00;104716;1267;1056198;-76
2023/02/06 11:11:20;;;;;;;10.40;8.50;;;;;;;-128.00;-1.00;-1.00;104056;1267;1003673;-75
2023/02/06 11:14:02;;;;;;;13.10;9.10;;;;;;;-128.00;-1.00;-1.00;104781;1267;1046321;-75
2023/02/06 11:16:29;;;;;;;11.10;8.40;;;;;;;-128.00;-1.00;-1.00;104809;1267;1046326;-76
2023/02/06 11:19:00;;;;;;;10.00;7.90;;;;;;;-128.00;-1.00;-1.00;104808;1268;1004473;-76